14°C Temp
'.PHP_EOL;
6°C Dewpoint
59% Humidity
Temperature
13 KM/H
8 MPH
7 KTS
130°
South East

Wind
Clear
Pressure 1021.02 (hPa)- 30.15 (in)
Visibility 10 (mi) - 16.1 (km)

Current Conditions
KTUL
Location 18(mi)
Metar:
KTUL 300653Z 13007KT 10SM CLR 14/06 A3015 RMK AO2 SLP203 T01390061
Fri 30th September 00:53 am

Airport
  Metar Aviation API Data Provided by https://www.checkwx.com/ Icons created by weather34.com